Time;durP1;ratioP1;P1;durP2;ratioP2;P2;SDS_P1;SDS_P2;PMS_P1;PMS_P2;Temp;Humidity;BMP_temperature;BMP_pressure;BME280_temperature;BME280_humidity;BME280_pressure;Samples;Min_cycle;Max_cycle;Signal;HPM_P1;HPM_P2
2022/05/20 00:02:04;;;;;;;;;;;;;;;22.17;48.85;102281.94;6127658;23;20345;-76
2022/05/20 00:04:29;;;;;;;;;;;;;;;22.17;48.81;102287.16;6101708;23;19909;-76
2022/05/20 00:06:54;;;;;;;;;;;;;;;22.17;48.70;102295.03;6077587;23;19919;-75
2022/05/20 00:09:19;;;;;;;;;;;;;;;22.16;48.97;102294.13;6127456;23;20388;-75
2022/05/20 00:11:45;;;;;;;;;;;;;;;22.16;48.98;102294.13;6127271;23;20000;-76
2022/05/20 00:14:10;;;;;;;;;;;;;;;22.15;48.95;102287.16;6127802;23;19931;-76
2022/05/20 00:16:35;;;;;;;;;;;;;;;22.15;48.73;102289.78;6101374;23;19909;-76
2022/05/20 00:19:05;;;;;;;;;;;;;;;22.15;48.98;102278.44;6101620;23;20031;-76
2022/05/20 00:21:31;;;;;;;;;;;;;;;22.13;48.84;102270.56;6127860;23;19916;-76
2022/05/20 00:23:56;;;;;;;;;;;;;;;22.13;48.72;102274.97;6127223;23;20034;-76
2022/05/20 00:26:21;;;;;;;;;;;;;;;22.13;49.03;102267.94;6127669;23;19940;-75
2022/05/20 00:28:48;;;;;;;;;;;;;;;22.13;48.87;102267.94;6127678;23;19919;-75
2022/05/20 00:31:14;;;;;;;;;;;;;;;22.12;49.03;102263.59;6127305;23;19917;-75
2022/05/20 00:33:39;;;;;;;;;;;;;;;22.13;48.86;102259.22;6127408;23;19943;-76
2022/05/20 00:36:05;;;;;;;;;;;;;;;22.12;49.15;102258.38;6127424;23;19909;-76
2022/05/20 00:38:31;;;;;;;;;;;;;;;22.12;49.14;102255.75;6127620;23;19909;-76
2022/05/20 00:40:58;;;;;;;;;;;;;;;22.12;49.17;102246.97;6127763;23;19909;-76
2022/05/20 00:43:26;;;;;;;;;;;;;;;22.11;49.04;102248.75;6127564;23;19909;-76
2022/05/20 00:46:18;;;;;;;;;;;;;;;22.12;49.03;102249.59;6128924;23;19916;-76
2022/05/20 00:48:44;;;;;;;;;;;;;;;22.11;48.88;102256.59;6126602;23;20330;-76
2022/05/20 00:51:12;;;;;;;;;;;;;;;22.11;49.08;102253.97;6129354;23;19941;-76
2022/05/20 00:53:40;;;;;;;;;;;;;;;22.11;49.23;102255.75;6129490;23;19909;-76
2022/05/20 00:56:07;;;;;;;;;;;;;;;22.12;48.97;102255.75;6129534;23;20322;-76
2022/05/20 00:58:32;;;;;;;;;;;;;;;22.11;48.93;102255.75;6129501;23;20385;-76
2022/05/20 01:00:59;;;;;;;;;;;;;;;22.11;49.00;102247.88;6103419;23;19909;-76
2022/05/20 01:03:26;;;;;;;;;;;;;;;22.11;49.25;102247.88;6129621;23;19909;-76
2022/05/20 01:05:52;;;;;;;;;;;;;;;22.09;49.25;102245.25;6129379;23;19909;-75
2022/05/20 01:08:19;;;;;;;;;;;;;;;22.09;49.23;102244.38;6129329;23;19964;-75
2022/05/20 01:10:45;;;;;;;;;;;;;;;22.09;49.09;102241.78;6128754;23;19913;-76
2022/05/20 01:13:11;;;;;;;;;;;;;;;22.09;48.97;102247.00;6129307;23;20387;-76
2022/05/20 01:15:36;;;;;;;;;;;;;;;22.08;49.25;102246.16;6079620;23;20234;-75
2022/05/20 01:18:02;;;;;;;;;;;;;;;22.09;49.09;102241.78;6103082;23;19913;-75
2022/05/20 01:20:30;;;;;;;;;;;;;;;22.08;48.75;102242.63;6103045;23;19964;-75
2022/05/20 01:22:58;;;;;;;;;;;;;;;22.08;49.33;102242.63;6129240;23;19909;-75
2022/05/20 01:25:25;;;;;;;;;;;;;;;22.08;49.33;102237.38;6129417;23;19916;-75
2022/05/20 01:27:50;;;;;;;;;;;;;;;22.07;49.29;102236.53;6102895;23;19909;-75
2022/05/20 01:30:17;;;;;;;;;;;;;;;22.06;49.22;102229.56;6103276;23;20000;-75
2022/05/20 01:32:42;;;;;;;;;;;;;;;22.06;49.20;102226.03;6128909;23;20333;-75
2022/05/20 01:35:11;;;;;;;;;;;;;;;22.06;49.20;102226.03;6129337;23;19944;-75
2022/05/20 01:37:36;;;;;;;;;;;;;;;22.06;49.38;102232.19;6129141;23;20237;-76
2022/05/20 01:40:02;;;;;;;;;;;;;;;22.06;49.30;102231.28;6129287;23;19909;-75
2022/05/20 01:42:30;;;;;;;;;;;;;;;22.06;49.09;102226.03;6079199;23;19913;-75
2022/05/20 01:44:59;;;;;;;;;;;;;;;22.05;49.21;102226.94;6128797;23;19909;-75
2022/05/20 01:47:39;;;;;;;;;;;;;;;22.05;49.38;102224.31;6128750;23;19990;-76
2022/05/20 01:50:04;;;;;;;;;;;;;;;22.05;49.28;102227.81;6128770;23;19909;-76
2022/05/20 01:52:35;;;;;;;;;;;;;;;22.05;49.30;102233.03;6102787;23;19915;-76
2022/05/20 01:55:08;;;;;;;;;;;;;;;22.04;49.29;102219.97;6103282;23;19913;-76
2022/05/20 01:57:36;;;;;;;;;;;;;;;22.04;49.28;102218.22;6128538;23;19913;-76
2022/05/20 02:00:10;;;;;;;;;;;;;;;22.04;49.29;102212.97;6128726;23;19936;-76
2022/05/20 02:02:41;;;;;;;;;;;;;;;22.04;49.14;102212.09;6128850;23;19908;-76
2022/05/20 02:05:13;;;;;;;;;;;;;;;22.03;49.28;102203.34;6128836;23;20032;-76
2022/05/20 02:07:41;;;;;;;;;;;;;;;22.03;49.31;102199.88;6102981;23;19916;-76
2022/05/20 02:10:32;;;;;;;;;;;;;;;22.03;49.22;102205.09;6128379;23;19909;-75
2022/05/20 02:13:00;;;;;;;;;;;;;;;22.03;49.46;102210.34;6125295;23;19956;-75
2022/05/20 02:15:29;;;;;;;;;;;;;;;22.02;49.39;102206.00;6129304;23;19909;-76
2022/05/20 02:17:56;;;;;;;;;;;;;;;22.01;49.47;102205.09;6128632;23;19910;-76
2022/05/20 02:20:25;;;;;;;;;;;;;;;22.01;49.40;102205.09;6128638;23;19909;-77
2022/05/20 02:22:53;;;;;;;;;;;;;;;22.02;49.41;102219.09;6102570;23;19916;-78
2022/05/20 02:25:21;;;;;;;;;;;;;;;22.02;49.30;102214.72;6102836;23;20314;-77
2022/05/20 02:27:50;;;;;;;;;;;;;;;22.00;49.40;102205.13;6102493;23;19936;-77
2022/05/20 02:30:18;;;;;;;;;;;;;;;22.02;49.39;102208.63;6102319;23;19936;-78
2022/05/20 02:32:49;;;;;;;;;;;;;;;22.01;49.47;102201.63;6128430;23;20289;-77
2022/05/20 02:35:14;;;;;;;;;;;;;;;22.01;49.34;102199.00;6128556;23;19936;-77
2022/05/20 02:37:40;;;;;;;;;;;;;;;22.01;49.47;102199.00;6078605;23;19917;-77
2022/05/20 02:40:07;;;;;;;;;;;;;;;22.00;49.35;102194.66;6128657;23;19955;-77
2022/05/20 02:42:32;;;;;;;;;;;;;;;22.00;49.41;102199.91;6102823;23;19909;-77
2022/05/20 02:45:01;;;;;;;;;;;;;;;21.99;49.53;102196.38;6102398;23;19915;-77
2022/05/20 02:47:31;;;;;;;;;;;;;;;22.00;49.26;102194.66;6102369;23;20318;-77
2022/05/20 02:49:56;;;;;;;;;;;;;;;21.99;49.53;102185.91;6127927;23;19909;-78
2022/05/20 02:52:21;;;;;;;;;;;;;;;21.98;49.54;102181.53;6128109;23;19924;-78
2022/05/20 02:54:47;;;;;;;;;;;;;;;21.98;49.53;102190.28;6128215;23;19917;-77
2022/05/20 02:57:12;;;;;;;;;;;;;;;21.97;49.55;102188.53;6102394;23;20333;-78
2022/05/20 03:05:05;;;;;;;;;;;;;;;21.97;49.47;102190.28;6128478;23;20253;-77
2022/05/20 03:07:30;;;;;;;;;;;;;;;21.97;49.57;102187.66;6102024;23;19912;-78
2022/05/20 03:09:55;;;;;;;;;;;;;;;21.97;49.49;102187.66;6078053;23;19913;-78
2022/05/20 03:12:21;;;;;;;;;;;;;;;21.95;49.48;102195.53;6102135;23;19917;-77
2022/05/20 03:14:46;;;;;;;;;;;;;;;21.95;49.35;102190.31;6102011;23;20253;-77
2022/05/20 03:17:11;;;;;;;;;;;;;;;21.94;49.58;102185.94;6102316;23;19952;-77
2022/05/20 03:19:37;;;;;;;;;;;;;;;21.96;49.35;102193.78;6102490;23;20206;-77
2022/05/20 03:22:03;;;;;;;;;;;;;;;21.95;49.48;102187.69;6102227;23;19913;-78
2022/05/20 03:24:29;;;;;;;;;;;;;;;21.94;49.51;102196.41;6128736;23;19909;-78
2022/05/20 03:26:54;;;;;;;;;;;;;;;21.94;49.37;102199.03;6102130;23;19920;-77
2022/05/20 03:29:20;;;;;;;;;;;;;;;21.95;49.29;102192.94;6101826;23;19936;-77
2022/05/20 03:31:45;;;;;;;;;;;;;;;21.94;49.42;102188.56;6127796;23;20040;-77
2022/05/20 03:34:11;;;;;;;;;;;;;;;21.94;49.38;102192.94;6101789;23;19916;-77
2022/05/20 03:36:37;;;;;;;;;;;;;;;21.94;49.49;102198.16;6128203;23;19956;-77
2022/05/20 03:39:03;;;;;;;;;;;;;;;21.94;49.45;102185.06;6127839;23;19913;-77
2022/05/20 03:41:28;;;;;;;;;;;;;;;21.93;49.24;102186.81;6102055;23;19913;-78
2022/05/20 03:43:53;;;;;;;;;;;;;;;21.94;49.29;102190.31;6127763;23;19916;-78
2022/05/20 03:46:19;;;;;;;;;;;;;;;21.93;49.19;102184.19;6101708;23;19919;-77
2022/05/20 03:48:44;;;;;;;;;;;;;;;21.93;49.32;102178.09;6127699;23;19940;-77
2022/05/20 03:51:11;;;;;;;;;;;;;;;21.93;49.24;102172.84;6102009;23;19913;-77
2022/05/20 03:53:36;;;;;;;;;;;;;;;21.94;49.26;102175.44;6127893;23;20237;-77
2022/05/20 03:56:02;;;;;;;;;;;;;;;21.94;49.37;102171.97;6127809;23;19916;-85
2022/05/20 03:58:27;;;;;;;;;;;;;;;21.93;49.47;102171.09;6102545;23;19913;-85
2022/05/20 04:03:40;;;;;;;;;;;;;;;21.96;49.20;102172.81;6106322;23;19932;-85
2022/05/20 04:06:05;;;;;;;;;;;;;;;21.96;49.31;102178.06;6102816;23;19995;-85
2022/05/20 04:08:30;;;;;;;;;;;;;;;21.97;49.05;102174.53;6102327;23;19913;-85
2022/05/20 04:10:56;;;;;;;;;;;;;;;21.98;49.06;102166.69;6127737;23;19913;-83
2022/05/20 04:13:21;;;;;;;;;;;;;;;22.00;49.05;102161.44;6079039;23;19978;-85
2022/05/20 04:15:46;;;;;;;;;;;;;;;22.01;49.19;102157.06;6078453;23;19913;-84
2022/05/20 04:18:12;;;;;;;;;;;;;;;22.03;48.93;102153.53;6078162;23;20006;-84
2022/05/20 04:20:37;;;;;;;;;;;;;;;22.03;49.01;102161.41;6078070;23;19920;-83
2022/05/20 04:23:02;;;;;;;;;;;;;;;22.03;49.04;102161.41;6078139;23;20270;-85
2022/05/20 04:25:27;;;;;;;;;;;;;;;22.05;49.14;102164.03;6102046;23;20286;-84
2022/05/20 04:27:53;;;;;;;;;;;;;;;22.04;49.15;102168.41;6077821;23;19912;-79
2022/05/20 04:30:18;;;;;;;;;;;;;;;22.05;48.92;102159.66;6102131;23;19913;-78
2022/05/20 04:32:43;;;;;;;;;;;;;;;22.06;48.85;102157.88;6077158;23;20380;-77
2022/05/20 04:35:09;;;;;;;;;;;;;;;22.08;48.79;102158.75;6127651;23;19920;-80
2022/05/20 04:37:34;;;;;;;;;;;;;;;22.07;49.07;102143.91;6101788;23;20380;-76
2022/05/20 04:39:59;;;;;;;;;;;;;;;22.07;48.97;102139.53;6127511;23;19936;-79
2022/05/20 04:47:52;;;;;;;;;;;;;;;22.10;48.91;102149.13;6127510;23;19929;-78
2022/05/20 04:50:17;;;;;;;;;;;;;;;22.10;48.77;102150.00;6127614;23;20325;-78
2022/05/20 04:52:43;;;;;;;;;;;;;;;22.11;48.83;102143.00;6127326;23;19991;-78
2022/05/20 04:55:08;;;;;;;;;;;;;;;22.14;48.85;102148.22;6077459;23;19939;-79
2022/05/20 04:57:39;;;;;;;;;;;;;;;22.23;48.66;102147.31;6101389;23;20237;-78
2022/05/20 05:00:05;;;;;;;;;;;;;;;22.38;47.96;102147.16;6127363;23;19991;-78
2022/05/20 05:02:31;;;;;;;;;;;;;;;22.58;47.60;102152.22;6101393;23;19984;-78
2022/05/20 05:04:56;;;;;;;;;;;;;;;22.66;47.55;102144.28;6127340;23;19909;-78
2022/05/20 05:07:22;;;;;;;;;;;;;;;22.86;47.15;102154.56;6127392;23;19909;-78
2022/05/20 05:09:47;;;;;;;;;;;;;;;22.91;47.29;102158.91;6101360;23;20414;-79
2022/05/20 05:12:14;;;;;;;;;;;;;;;22.82;47.02;102164.25;6077372;23;20037;-80
2022/05/20 05:14:40;;;;;;;;;;;;;;;22.92;47.05;102167.63;6127341;23;19916;-83
2022/05/20 05:17:07;;;;;;;;;;;;;;;23.15;46.84;102168.28;6101502;23;19915;-78
2022/05/20 05:19:34;;;;;;;;;;;;;;;23.31;46.33;102179.47;6101314;23;19909;-78
2022/05/20 05:21:59;;;;;;;;;;;;;;;23.42;46.19;102174.94;6127011;23;19909;-77
2022/05/20 05:24:25;;;;;;;;;;;;;;;23.47;46.18;102179.25;6101414;23;20381;-77
2022/05/20 05:26:50;;;;;;;;;;;;;;;23.50;46.18;102174.00;6102043;23;19920;-78
2022/05/20 05:29:15;;;;;;;;;;;;;;;23.70;45.63;102168.47;6101527;23;19952;-79
2022/05/20 05:31:40;;;;;;;;;;;;;;;23.73;45.47;102168.41;6102608;23;19921;-77
2022/05/20 05:34:06;;;;;;;;;;;;;;;23.80;45.41;102165.72;6129152;23;20334;-77
2022/05/20 05:36:31;;;;;;;;;;;;;;;23.90;45.02;102162.94;6103207;23;20381;-77
2022/05/20 05:38:56;;;;;;;;;;;;;;;23.98;44.67;102168.94;6103143;23;20237;-77
2022/05/20 05:41:22;;;;;;;;;;;;;;;23.80;43.93;102159.56;6103381;23;20245;-81
2022/05/20 05:43:47;;;;;;;;;;;;;;;23.18;44.77;102170.84;6104107;23;19913;-79
2022/05/20 05:46:13;;;;;;;;;;;;;;;22.83;44.96;102165.97;6104352;23;19927;-78
2022/05/20 05:48:38;;;;;;;;;;;;;;;22.61;45.33;102167.97;6080213;23;19913;-79
2022/05/20 05:51:03;;;;;;;;;;;;;;;22.53;45.35;102160.16;6080381;23;19917;-79
2022/05/20 05:53:29;;;;;;;;;;;;;;;22.59;45.19;102159.22;6104014;23;20000;-81
2022/05/20 05:55:56;;;;;;;;;;;;;;;22.79;44.63;102156.41;6103331;23;19909;-78
2022/05/20 05:58:21;;;;;;;;;;;;;;;22.72;44.85;102159.97;6102900;23;19915;-79
2022/05/20 06:00:46;;;;;;;;;;;;;;;22.54;45.13;102148.78;6103218;23;19996;-79
2022/05/20 06:03:14;;;;;;;;;;;;;;;22.42;45.44;102153.28;6103090;23;19913;-79
2022/05/20 06:05:39;;;;;;;;;;;;;;;22.34;45.29;102154.22;6102855;23;19916;-79
2022/05/20 06:08:05;;;;;;;;;;;;;;;22.37;45.37;102167.28;6079218;23;19913;-79
2022/05/20 06:10:31;;;;;;;;;;;;;;;22.39;45.31;102156.78;6103243;23;19936;-80
2022/05/20 06:12:56;;;;;;;;;;;;;;;22.44;44.97;102162.00;6102672;23;19943;-80
2022/05/20 06:15:22;;;;;;;;;;;;;;;22.67;44.19;102159.13;6102945;23;20318;-79
2022/05/20 06:17:48;;;;;;;;;;;;;;;22.77;43.96;102145.03;6104314;23;19909;-78
2022/05/20 06:20:14;;;;;;;;;;;;;;;22.93;43.97;102140.47;6102784;23;19940;-78
2022/05/20 06:22:39;;;;;;;;;;;;;;;23.04;43.67;102140.41;6078983;23;19936;-79
2022/05/20 06:25:05;;;;;;;;;;;;;;;22.96;43.86;102146.59;6078975;23;19996;-78
2022/05/20 06:27:33;;;;;;;;;;;;;;;22.96;43.70;102129.97;6129097;23;19931;-81
2022/05/20 06:29:58;;;;;;;;;;;;;;;23.03;44.19;102129.03;6129089;23;19936;-82
2022/05/20 06:32:24;;;;;;;;;;;;;;;23.06;44.35;102129.00;6129239;23;20318;-84
2022/05/20 06:40:18;;;;;;;;;;;;;;;22.90;44.95;102145.78;6108312;23;19920;-85
2022/05/20 06:42:44;;;;;;;;;;;;;;;22.83;45.39;102137.13;6131349;23;19909;-79
2022/05/20 06:45:10;;;;;;;;;;;;;;;22.86;44.83;102142.31;6104102;23;19912;-86
2022/05/20 06:47:35;;;;;;;;;;;;;;;23.13;44.55;102142.94;6104148;23;19932;-82
2022/05/20 06:50:00;;;;;;;;;;;;;;;23.19;45.06;102151.59;6103416;23;19913;-82
2022/05/20 06:52:26;;;;;;;;;;;;;;;23.28;45.24;102147.09;6102591;23;19968;-81
2022/05/20 06:54:51;;;;;;;;;;;;;;;24.66;42.26;102139.75;6128762;23;19920;-78
2022/05/20 06:57:20;;;;;;;;;;;;;;;25.17;40.80;102131.72;6102650;23;19913;-78
2022/05/20 06:59:45;;;;;;;;;;;;;;;25.20;40.79;102141.34;6078372;23;19991;-78
2022/05/20 07:02:10;;;;;;;;;;;;;;;25.11;40.95;102139.75;6128072;23;19948;-75
2022/05/20 07:04:36;;;;;;;;;;;;;;;24.69;41.88;102123.88;6102196;23;19917;-74
2022/05/20 07:07:03;;;;;;;;;;;;;;;24.68;41.82;102118.66;6102158;23;19909;-76
2022/05/20 07:09:28;;;;;;;;;;;;;;;24.67;41.62;102112.50;6128509;23;19909;-75
2022/05/20 07:11:54;;;;;;;;;;;;;;;24.49;41.55;102111.09;6101554;23;19924;-75
2022/05/20 07:14:19;;;;;;;;;;;;;;;24.49;41.29;102112.88;6128226;23;19989;-76
2022/05/20 07:16:44;;;;;;;;;;;;;;;24.66;40.48;102123.09;6127991;23;20013;-75
2022/05/20 07:19:10;;;;;;;;;;;;;;;24.57;40.94;102124.13;6102270;23;19920;-75
2022/05/20 07:21:35;;;;;;;;;;;;;;;24.48;40.89;102121.66;6128207;23;19992;-75
2022/05/20 07:24:01;;;;;;;;;;;;;;;24.48;40.69;102117.28;6102162;23;19913;-75
2022/05/20 07:26:27;;;;;;;;;;;;;;;24.31;40.64;102117.53;6128197;23;19909;-75
2022/05/20 07:28:52;;;;;;;;;;;;;;;24.25;40.77;102117.66;6102393;23;19909;-75
2022/05/20 07:31:17;;;;;;;;;;;;;;;24.22;40.62;102107.19;6101858;23;19913;-75
2022/05/20 07:33:43;;;;;;;;;;;;;;;24.30;40.48;102107.94;6102064;23;19913;-75
2022/05/20 07:36:08;;;;;;;;;;;;;;;24.33;40.31;102113.13;6101855;23;19909;-75
2022/05/20 07:38:34;;;;;;;;;;;;;;;24.26;40.45;102103.63;6128062;23;19995;-75
2022/05/20 07:41:00;;;;;;;;;;;;;;;24.29;40.05;102108.81;6128077;23;19936;-75
2022/05/20 07:43:26;;;;;;;;;;;;;;;24.23;40.31;102099.25;6077896;23;19913;-75
2022/05/20 07:45:51;;;;;;;;;;;;;;;24.16;40.59;102102.03;6078099;23;20242;-75
2022/05/20 07:48:17;;;;;;;;;;;;;;;24.15;40.34;102088.03;6101760;23;19917;-75
2022/05/20 07:50:46;;;;;;;;;;;;;;;24.07;40.39;102081.16;6101820;23;19919;-75
2022/05/20 07:53:19;;;;;;;;;;;;;;;24.10;40.19;102081.94;6127628;23;19909;-74
2022/05/20 07:55:48;;;;;;;;;;;;;;;24.15;40.26;102072.25;6125955;23;19916;-76
2022/05/20 07:58:17;;;;;;;;;;;;;;;24.05;40.28;102064.53;6101616;23;19909;-75
2022/05/20 08:00:42;;;;;;;;;;;;;;;23.99;40.17;102061.09;6102592;23;19936;-78
2022/05/20 08:03:09;;;;;;;;;;;;;;;24.05;39.94;102054.88;6101944;23;20327;-79
2022/05/20 08:05:35;;;;;;;;;;;;;;;24.06;39.57;102045.22;6127921;23;19916;-79
2022/05/20 08:08:02;;;;;;;;;;;;;;;24.10;39.69;102042.50;6127564;23;19909;-78
2022/05/20 08:10:29;;;;;;;;;;;;;;;24.08;39.70;102038.19;6128043;23;19909;-79
2022/05/20 08:12:54;;;;;;;;;;;;;;;24.00;39.47;102033.94;6101532;23;19916;-79
2022/05/20 08:15:19;;;;;;;;;;;;;;;24.00;39.51;102035.69;6127605;23;20375;-79
2022/05/20 08:17:45;;;;;;;;;;;;;;;23.96;39.55;102036.66;6102087;23;19913;-78
2022/05/20 08:20:13;;;;;;;;;;;;;;;24.00;39.45;102025.19;6101791;23;19967;-78
2022/05/20 08:22:39;;;;;;;;;;;;;;;24.01;39.65;102029.53;6127615;23;20377;-78
2022/05/20 08:25:04;;;;;;;;;;;;;;;24.07;39.41;102023.31;6101518;23;19909;-78
2022/05/20 08:27:30;;;;;;;;;;;;;;;24.00;39.52;102022.56;6127643;23;20020;-78
2022/05/20 08:29:56;;;;;;;;;;;;;;;23.90;39.52;102021.81;6101795;23;19936;-78
2022/05/20 08:32:22;;;;;;;;;;;;;;;23.85;39.82;102010.53;6101777;23;19920;-78
2022/05/20 08:34:47;;;;;;;;;;;;;;;23.77;39.80;102000.13;6101400;23;19974;-78
2022/05/20 08:37:13;;;;;;;;;;;;;;;23.66;40.15;102004.69;6127769;23;19913;-78
2022/05/20 08:39:39;;;;;;;;;;;;;;;23.70;39.69;101997.63;6127628;23;19909;-77
2022/05/20 08:42:05;;;;;;;;;;;;;;;23.67;39.83;101995.03;6127551;23;20249;-77
2022/05/20 08:44:31;;;;;;;;;;;;;;;23.64;40.00;101989.84;6102269;23;19913;-79
2022/05/20 08:47:12;;;;;;;;;;;;;;;23.56;40.09;101987.31;6128276;23;19909;-78
2022/05/20 08:49:38;;;;;;;;;;;;;;;23.54;40.03;101987.38;6127742;23;19963;-79
2022/05/20 08:52:06;;;;;;;;;;;;;;;23.53;40.11;101990.03;6101291;23;20280;-78
2022/05/20 08:54:32;;;;;;;;;;;;;;;23.50;40.31;101979.56;6101719;23;19913;-78
2022/05/20 08:56:58;;;;;;;;;;;;;;;23.48;40.29;101976.97;6101678;23;19913;-78
2022/05/20 08:59:23;;;;;;;;;;;;;;;23.44;40.37;101963.91;6127568;23;19947;-79
2022/05/20 09:01:50;;;;;;;;;;;;;;;23.29;44.56;101954.50;6127221;23;19913;-80
2022/05/20 09:04:19;;;;;;;;;;;;;;;22.86;47.37;101942.84;6101703;23;19944;-80
2022/05/20 09:07:01;;;;;;;;;;;;;;;22.67;53.22;101946.59;6102788;23;19991;-80
2022/05/20 09:09:38;;;;;;;;;;;;;;;22.62;54.77;101935.31;6129145;23;20233;-81
2022/05/20 09:12:03;;;;;;;;;;;;;;;22.59;55.50;101928.34;6129467;23;19921;-80
2022/05/20 09:17:15;;;;;;;;;;;;;;;22.55;57.76;101926.66;6108777;23;19963;-79
2022/05/20 09:20:01;;;;;;;;;;;;;;;22.52;57.21;101921.47;6132439;23;19909;-82
2022/05/20 09:22:29;;;;;;;;;;;;;;;22.48;58.08;101925.00;6105535;23;20237;-81
2022/05/20 09:24:54;;;;;;;;;;;;;;;22.45;56.98;101911.91;6104194;23;19944;-83
2022/05/20 09:27:26;;;;;;;;;;;;;;;22.47;56.55;101921.53;6129574;23;19909;-83
2022/05/20 09:30:00;;;;;;;;;;;;;;;22.49;57.16;101924.13;6103939;23;19960;-83
2022/05/20 09:32:33;;;;;;;;;;;;;;;22.46;57.96;101921.53;6103728;23;19974;-83
2022/05/20 09:35:03;;;;;;;;;;;;;;;22.47;58.20;101921.53;6103618;23;20314;-83
2022/05/20 09:37:33;;;;;;;;;;;;;;;22.49;57.85;101926.75;6129230;23;20390;-83
2022/05/20 09:40:14;;;;;;;;;;;;;;;22.49;57.29;101906.63;6129131;23;19915;-84
2022/05/20 09:42:55;;;;;;;;;;;;;;;22.48;57.32;101890.91;6129415;23;19909;-83
2022/05/20 09:45:20;;;;;;;;;;;;;;;22.47;56.83;101891.78;6129291;23;20337;-84
2022/05/20 09:47:50;;;;;;;;;;;;;;;22.48;57.72;101891.78;6103611;23;19913;-83
2022/05/20 09:50:29;;;;;;;;;;;;;;;22.45;57.42;101878.72;6129577;23;20404;-84
2022/05/20 09:52:57;;;;;;;;;;;;;;;22.45;57.41;101862.97;6129265;23;19913;-83
2022/05/20 09:55:27;;;;;;;;;;;;;;;22.43;57.59;101856.88;6129656;23;19909;-82
2022/05/20 09:57:55;;;;;;;;;;;;;;;22.44;57.56;101849.88;6129071;23;19915;-74
2022/05/20 10:00:32;;;;;;;;;;;;;;;22.44;57.35;101849.88;6103095;23;19967;-74
2022/05/20 10:03:10;;;;;;;;;;;;;;;22.44;57.16;101848.13;6129442;23;20352;-83
2022/05/20 10:05:47;;;;;;;;;;;;;;;22.45;56.77;101846.34;6103148;23;19909;-83
2022/05/20 10:08:23;;;;;;;;;;;;;;;22.46;57.30;101838.47;6129538;23;19940;-83
2022/05/20 10:10:48;;;;;;;;;;;;;;;22.48;56.35;101823.59;6103080;23;19944;-83
2022/05/20 10:13:30;;;;;;;;;;;;;;;22.49;56.73;101819.19;6129611;23;20281;-83
2022/05/20 10:16:15;;;;;;;;;;;;;;;22.47;56.68;101808.75;6129561;23;19948;-83
2022/05/20 10:18:44;;;;;;;;;;;;;;;22.50;56.50;101805.22;6101995;23;19909;-82
2022/05/20 10:21:15;;;;;;;;;;;;;;;22.51;56.10;101793.81;6129237;23;19956;-82
2022/05/20 10:24:04;;;;;;;;;;;;;;;22.50;56.44;101778.97;6103019;23;20377;-83
2022/05/20 10:26:37;;;;;;;;;;;;;;;22.50;56.38;101773.72;6128825;23;19932;-82
2022/05/20 10:34:55;;;;;;;;;;;;;;;22.50;56.63;101747.50;6129196;23;19916;-82
2022/05/20 10:37:27;;;;;;;;;;;;;;;22.48;57.17;101739.66;6128813;23;20237;-82
2022/05/20 10:40:06;;;;;;;;;;;;;;;22.49;56.56;101756.25;6129011;23;19940;-83
2022/05/20 10:43:04;;;;;;;;;;;;;;;22.50;56.71;101734.38;6102626;23;19944;-82
2022/05/20 10:48:38;;;;;;;;;;;;;;;22.50;56.55;101721.28;6106947;23;19919;-82
2022/05/20 10:51:09;;;;;;;;;;;;;;;22.49;56.24;101709.88;6128938;23;19913;-83
2022/05/20 10:54:07;;;;;;;;;;;;;;;22.46;56.12;101695.97;6128969;23;19957;-80
2022/05/20 10:56:51;;;;;;;;;;;;;;;22.48;56.44;101671.44;6095680;23;19909;-80
2022/05/20 10:59:35;;;;;;;;;;;;;;;22.50;56.02;101660.94;6128804;23;19913;-79
2022/05/20 11:02:13;;;;;;;;;;;;;;;22.50;55.58;101632.09;6102320;23;20053;-79
2022/05/20 11:04:38;;;;;;;;;;;;;;;22.49;55.94;101625.97;6102398;23;19909;-79
2022/05/20 11:07:22;;;;;;;;;;;;;;;22.48;55.24;101634.72;6128755;23;19909;-80
2022/05/20 11:10:06;;;;;;;;;;;;;;;22.50;55.75;101637.34;6127995;23;19909;-83
2022/05/20 11:12:44;;;;;;;;;;;;;;;22.44;55.80;101629.56;6127739;23;19916;-78
2022/05/20 11:15:09;;;;;;;;;;;;;;;22.38;53.56;101618.31;6128327;23;19913;-78
2022/05/20 11:18:07;;;;;;;;;;;;;;;22.39;56.42;101627.03;6101939;23;19985;-79
2022/05/20 11:20:44;;;;;;;;;;;;;;;22.27;60.97;101622.00;6094881;23;19909;-80
2022/05/20 11:23:19;;;;;;;;;;;;;;;22.07;61.45;101610.03;6128148;23;19987;-81
2022/05/20 11:25:57;;;;;;;;;;;;;;;22.07;60.49;101609.19;6128285;23;19983;-79
2022/05/20 11:28:41;;;;;;;;;;;;;;;21.97;60.41;101609.34;6102057;23;20294;-79
2022/05/20 11:31:12;;;;;;;;;;;;;;;21.99;60.44;101611.91;6128383;23;20253;-84
2022/05/20 11:33:43;;;;;;;;;;;;;;;21.99;59.79;101630.25;6102377;23;19979;-86
2022/05/20 11:36:15;;;;;;;;;;;;;;;22.00;59.64;101644.25;6102457;23;20241;-86
2022/05/20 11:38:49;;;;;;;;;;;;;;;21.94;59.98;101653.91;6102771;23;19916;-86
2022/05/20 11:41:44;;;;;;;;;;;;;;;21.90;59.84;101657.47;6128628;23;19913;-83
2022/05/20 11:44:12;;;;;;;;;;;;;;;21.84;60.46;101639.25;6114806;23;20270;-84
2022/05/20 11:46:56;;;;;;;;;;;;;;;21.86;58.27;101602.50;6128779;23;19988;-83
2022/05/20 11:49:29;;;;;;;;;;;;;;;21.97;59.58;101583.13;6101874;23;19916;-78
2022/05/20 11:52:05;;;;;;;;;;;;;;;22.08;59.30;101566.34;6128403;23;19913;-86
2022/05/20 11:54:47;;;;;;;;;;;;;;;22.01;59.94;101555.09;6102874;23;20311;-85
2022/05/20 11:57:17;;;;;;;;;;;;;;;22.00;59.61;101545.50;6128398;23;19909;-85
2022/05/20 12:00:02;;;;;;;;;;;;;;;22.01;57.77;101546.38;6102644;23;19988;-86
2022/05/20 12:02:30;;;;;;;;;;;;;;;22.02;58.83;101548.13;6103557;23;19919;-86
2022/05/20 12:04:56;;;;;;;;;;;;;;;22.00;58.47;101545.50;6128878;23;20003;-86
2022/05/20 12:07:24;;;;;;;;;;;;;;;21.97;59.30;101538.56;6102487;23;19913;-84
2022/05/20 12:09:52;;;;;;;;;;;;;;;21.95;58.33;101537.72;6102902;23;19909;-83
2022/05/20 12:12:17;;;;;;;;;;;;;;;21.94;58.96;101515.03;6128862;23;19917;-85
2022/05/20 12:15:01;;;;;;;;;;;;;;;21.93;58.93;101515.06;6102670;23;19913;-85
2022/05/20 12:17:40;;;;;;;;;;;;;;;21.92;58.97;101540.38;6102890;23;19905;-85
2022/05/20 12:26:00;;;;;;;;;;;;;;;21.90;59.15;101550.03;6128327;23;19909;-84
2022/05/20 12:28:25;;;;;;;;;;;;;;;21.88;58.94;101557.03;6129474;23;19909;-85
2022/05/20 12:31:06;;;;;;;;;;;;;;;21.87;59.33;101565.81;6130219;23;19932;-85
2022/05/20 12:33:48;;;;;;;;;;;;;;;21.87;59.16;101585.91;6104754;23;19932;-84
2022/05/20 12:36:33;;;;;;;;;;;;;;;21.87;58.96;101614.75;6105992;23;19960;-85
2022/05/20 12:39:07;;;;;;;;;;;;;;;21.87;59.00;101656.66;6129655;23;19909;-84
2022/05/20 12:41:34;;;;;;;;;;;;;;;21.84;59.34;101633.09;6127763;23;20219;-84
2022/05/20 12:44:20;;;;;;;;;;;;;;;21.85;58.47;101578.06;6128195;23;20322;-84
2022/05/20 12:47:04;;;;;;;;;;;;;;;21.85;58.88;101578.06;6128007;23;19909;-85
2022/05/20 12:49:32;;;;;;;;;;;;;;;21.85;58.91;101538.75;6102169;23;19909;-85
2022/05/20 12:52:12;;;;;;;;;;;;;;;21.86;58.65;101552.72;6101866;23;19913;-84
2022/05/20 12:54:39;;;;;;;;;;;;;;;21.87;58.71;101563.19;6101953;23;19936;-84
2022/05/20 12:57:06;;;;;;;;;;;;;;;21.87;58.81;101552.72;6101897;23;19909;-84
2022/05/20 12:59:32;;;;;;;;;;;;;;;21.87;58.86;101552.72;6102063;23;19909;-85
2022/05/20 13:01:59;;;;;;;;;;;;;;;21.87;58.71;101537.00;6102006;23;19933;-85
2022/05/20 13:04:27;;;;;;;;;;;;;;;21.87;58.66;101533.50;6102153;23;19915;-84
2022/05/20 13:06:52;;;;;;;;;;;;;;;21.86;58.95;101519.56;6102142;23;19915;-85
2022/05/20 13:09:22;;;;;;;;;;;;;;;21.89;58.63;101552.69;6101724;23;20326;-84
2022/05/20 13:11:50;;;;;;;;;;;;;;;21.86;58.83;101560.59;6127899;23;19924;-85
2022/05/20 13:14:17;;;;;;;;;;;;;;;21.88;58.58;101554.41;6101799;23;19916;-84
2022/05/20 13:16:47;;;;;;;;;;;;;;;21.89;58.46;101558.78;6127752;23;19913;-84
2022/05/20 13:19:13;;;;;;;;;;;;;;;21.87;58.45;101557.94;6101871;23;19916;-85
2022/05/20 13:21:43;;;;;;;;;;;;;;;21.88;59.08;101545.72;6077913;23;19945;-84